sensor_id;sensor_type;location;lat;lon;timestamp;P1;durP1;ratioP1;P2;durP2;ratioP2
19619;SDS011;9957;52.282;21.110;2023-07-13T00:02:22;17.23;;;8.13;;
19619;SDS011;9957;52.282;21.110;2023-07-13T00:04:49;13.02;;;8.10;;
19619;SDS011;9957;52.282;21.110;2023-07-13T00:07:15;14.93;;;7.87;;
19619;SDS011;9957;52.282;21.110;2023-07-13T00:09:45;15.02;;;7.82;;
19619;SDS011;9957;52.282;21.110;2023-07-13T00:12:28;15.10;;;8.00;;
19619;SDS011;9957;52.282;21.110;2023-07-13T00:14:58;14.68;;;7.85;;
19619;SDS011;9957;52.282;21.110;2023-07-13T00:17:25;16.23;;;7.85;;
19619;SDS011;9957;52.282;21.110;2023-07-13T00:19:51;14.53;;;7.50;;
19619;SDS011;9957;52.282;21.110;2023-07-13T00:22:17;16.00;;;8.07;;
19619;SDS011;9957;52.282;21.110;2023-07-13T00:24:44;14.05;;;7.57;;
19619;SDS011;9957;52.282;21.110;2023-07-13T00:27:10;13.30;;;7.67;;
19619;SDS011;9957;52.282;21.110;2023-07-13T00:29:36;14.38;;;7.97;;
19619;SDS011;9957;52.282;21.110;2023-07-13T00:32:03;14.15;;;7.53;;
19619;SDS011;9957;52.282;21.110;2023-07-13T00:34:30;11.70;;;7.47;;
19619;SDS011;9957;52.282;21.110;2023-07-13T00:36:56;11.65;;;7.43;;
19619;SDS011;9957;52.282;21.110;2023-07-13T00:39:22;13.40;;;7.47;;
19619;SDS011;9957;52.282;21.110;2023-07-13T00:47:29;14.80;;;8.13;;
19619;SDS011;9957;52.282;21.110;2023-07-13T00:49:55;16.23;;;8.60;;
19619;SDS011;9957;52.282;21.110;2023-07-13T00:52:21;20.23;;;9.20;;
19619;SDS011;9957;52.282;21.110;2023-07-13T00:54:47;19.65;;;10.02;;
19619;SDS011;9957;52.282;21.110;2023-07-13T00:57:14;19.05;;;10.00;;
19619;SDS011;9957;52.282;21.110;2023-07-13T00:59:42;19.67;;;10.68;;
19619;SDS011;9957;52.282;21.110;2023-07-13T01:02:08;22.92;;;11.50;;
19619;SDS011;9957;52.282;21.110;2023-07-13T01:04:35;23.77;;;12.40;;
19619;SDS011;9957;52.282;21.110;2023-07-13T01:07:01;26.48;;;12.75;;
19619;SDS011;9957;52.282;21.110;2023-07-13T01:09:27;26.90;;;12.97;;
19619;SDS011;9957;52.282;21.110;2023-07-13T01:11:53;25.42;;;13.02;;
19619;SDS011;9957;52.282;21.110;2023-07-13T01:14:19;24.05;;;11.82;;
19619;SDS011;9957;52.282;21.110;2023-07-13T01:16:46;24.90;;;12.02;;
19619;SDS011;9957;52.282;21.110;2023-07-13T01:19:25;24.50;;;11.52;;
19619;SDS011;9957;52.282;21.110;2023-07-13T01:22:00;20.13;;;11.27;;
19619;SDS011;9957;52.282;21.110;2023-07-13T01:24:27;19.17;;;10.57;;
19619;SDS011;9957;52.282;21.110;2023-07-13T01:26:53;20.90;;;10.90;;
19619;SDS011;9957;52.282;21.110;2023-07-13T01:29:19;22.02;;;11.52;;
19619;SDS011;9957;52.282;21.110;2023-07-13T01:31:45;21.50;;;11.13;;
19619;SDS011;9957;52.282;21.110;2023-07-13T01:34:11;18.23;;;10.45;;
19619;SDS011;9957;52.282;21.110;2023-07-13T01:36:37;19.67;;;10.95;;
19619;SDS011;9957;52.282;21.110;2023-07-13T01:39:03;20.10;;;11.05;;
19619;SDS011;9957;52.282;21.110;2023-07-13T01:41:29;24.10;;;12.63;;
19619;SDS011;9957;52.282;21.110;2023-07-13T01:43:55;19.40;;;11.17;;
19619;SDS011;9957;52.282;21.110;2023-07-13T01:46:22;23.07;;;11.00;;
19619;SDS011;9957;52.282;21.110;2023-07-13T01:48:48;19.58;;;10.98;;
19619;SDS011;9957;52.282;21.110;2023-07-13T01:51:15;18.45;;;10.70;;
19619;SDS011;9957;52.282;21.110;2023-07-13T01:53:41;20.08;;;11.45;;
19619;SDS011;9957;52.282;21.110;2023-07-13T01:56:07;25.83;;;11.50;;
19619;SDS011;9957;52.282;21.110;2023-07-13T01:58:33;21.75;;;10.45;;
19619;SDS011;9957;52.282;21.110;2023-07-13T02:00:59;24.45;;;10.85;;
19619;SDS011;9957;52.282;21.110;2023-07-13T02:03:25;22.20;;;10.60;;
19619;SDS011;9957;52.282;21.110;2023-07-13T02:05:51;19.92;;;10.85;;
19619;SDS011;9957;52.282;21.110;2023-07-13T02:08:17;24.55;;;10.85;;
19619;SDS011;9957;52.282;21.110;2023-07-13T02:10:43;30.10;;;11.70;;
19619;SDS011;9957;52.282;21.110;2023-07-13T02:13:09;23.50;;;11.75;;
19619;SDS011;9957;52.282;21.110;2023-07-13T02:15:38;27.35;;;12.13;;
19619;SDS011;9957;52.282;21.110;2023-07-13T02:18:05;22.20;;;11.50;;
19619;SDS011;9957;52.282;21.110;2023-07-13T02:20:31;21.92;;;10.93;;
19619;SDS011;9957;52.282;21.110;2023-07-13T02:22:57;21.40;;;11.02;;
19619;SDS011;9957;52.282;21.110;2023-07-13T02:25:23;21.48;;;10.32;;
19619;SDS011;9957;52.282;21.110;2023-07-13T02:27:51;23.90;;;10.77;;
19619;SDS011;9957;52.282;21.110;2023-07-13T02:30:17;20.50;;;10.65;;
19619;SDS011;9957;52.282;21.110;2023-07-13T02:32:43;27.40;;;10.93;;
19619;SDS011;9957;52.282;21.110;2023-07-13T02:35:09;23.38;;;10.68;;
19619;SDS011;9957;52.282;21.110;2023-07-13T02:37:36;23.63;;;9.63;;
19619;SDS011;9957;52.282;21.110;2023-07-13T02:40:02;22.85;;;10.27;;
19619;SDS011;9957;52.282;21.110;2023-07-13T02:42:33;20.00;;;9.47;;
19619;SDS011;9957;52.282;21.110;2023-07-13T02:45:00;25.42;;;10.27;;
19619;SDS011;9957;52.282;21.110;2023-07-13T02:47:26;25.05;;;10.32;;
19619;SDS011;9957;52.282;21.110;2023-07-13T02:49:52;22.50;;;10.48;;
19619;SDS011;9957;52.282;21.110;2023-07-13T02:52:19;18.33;;;9.68;;
19619;SDS011;9957;52.282;21.110;2023-07-13T02:54:45;22.73;;;10.02;;
19619;SDS011;9957;52.282;21.110;2023-07-13T02:57:11;21.08;;;9.75;;
19619;SDS011;9957;52.282;21.110;2023-07-13T02:59:37;21.83;;;9.77;;
19619;SDS011;9957;52.282;21.110;2023-07-13T03:02:03;18.50;;;9.88;;
19619;SDS011;9957;52.282;21.110;2023-07-13T03:04:29;20.30;;;10.00;;
19619;SDS011;9957;52.282;21.110;2023-07-13T03:06:56;22.33;;;9.98;;
19619;SDS011;9957;52.282;21.110;2023-07-13T03:09:23;21.35;;;9.95;;
19619;SDS011;9957;52.282;21.110;2023-07-13T03:11:52;18.33;;;9.57;;
19619;SDS011;9957;52.282;21.110;2023-07-13T03:14:18;23.05;;;9.73;;
19619;SDS011;9957;52.282;21.110;2023-07-13T03:16:44;17.75;;;9.32;;
19619;SDS011;9957;52.282;21.110;2023-07-13T03:19:10;19.00;;;9.82;;
19619;SDS011;9957;52.282;21.110;2023-07-13T03:21:36;23.73;;;9.40;;
19619;SDS011;9957;52.282;21.110;2023-07-13T03:24:02;19.63;;;8.60;;
19619;SDS011;9957;52.282;21.110;2023-07-13T03:26:29;26.05;;;9.82;;
19619;SDS011;9957;52.282;21.110;2023-07-13T03:28:55;20.98;;;9.30;;
19619;SDS011;9957;52.282;21.110;2023-07-13T03:31:22;23.23;;;10.35;;
19619;SDS011;9957;52.282;21.110;2023-07-13T03:33:48;29.63;;;10.50;;
19619;SDS011;9957;52.282;21.110;2023-07-13T03:36:19;33.40;;;10.95;;
19619;SDS011;9957;52.282;21.110;2023-07-13T03:38:49;25.10;;;11.00;;
19619;SDS011;9957;52.282;21.110;2023-07-13T03:41:16;40.58;;;12.98;;
19619;SDS011;9957;52.282;21.110;2023-07-13T03:43:42;26.83;;;10.85;;
19619;SDS011;9957;52.282;21.110;2023-07-13T03:46:08;32.03;;;10.52;;
19619;SDS011;9957;52.282;21.110;2023-07-13T03:48:35;23.70;;;10.23;;
19619;SDS011;9957;52.282;21.110;2023-07-13T03:51:01;25.60;;;10.55;;
19619;SDS011;9957;52.282;21.110;2023-07-13T03:53:28;30.13;;;11.43;;
19619;SDS011;9957;52.282;21.110;2023-07-13T03:55:54;26.13;;;10.70;;
19619;SDS011;9957;52.282;21.110;2023-07-13T03:58:27;32.50;;;10.90;;
19619;SDS011;9957;52.282;21.110;2023-07-13T04:00:54;23.20;;;10.20;;
19619;SDS011;9957;52.282;21.110;2023-07-13T04:03:20;26.60;;;10.25;;
19619;SDS011;9957;52.282;21.110;2023-07-13T04:05:47;23.17;;;10.43;;
19619;SDS011;9957;52.282;21.110;2023-07-13T04:08:13;26.52;;;10.50;;
19619;SDS011;9957;52.282;21.110;2023-07-13T04:10:39;30.20;;;10.48;;
19619;SDS011;9957;52.282;21.110;2023-07-13T04:13:05;24.40;;;10.88;;
19619;SDS011;9957;52.282;21.110;2023-07-13T04:15:31;21.13;;;10.50;;
19619;SDS011;9957;52.282;21.110;2023-07-13T04:17:57;26.40;;;10.33;;
19619;SDS011;9957;52.282;21.110;2023-07-13T04:20:24;26.85;;;11.05;;
19619;SDS011;9957;52.282;21.110;2023-07-13T04:22:51;24.30;;;11.45;;
19619;SDS011;9957;52.282;21.110;2023-07-13T04:25:18;24.08;;;11.80;;
19619;SDS011;9957;52.282;21.110;2023-07-13T04:27:44;29.35;;;15.30;;
19619;SDS011;9957;52.282;21.110;2023-07-13T04:30:10;26.02;;;12.85;;
19619;SDS011;9957;52.282;21.110;2023-07-13T04:32:36;26.52;;;12.38;;
19619;SDS011;9957;52.282;21.110;2023-07-13T04:35:02;24.67;;;12.13;;
19619;SDS011;9957;52.282;21.110;2023-07-13T04:37:29;23.30;;;11.55;;
19619;SDS011;9957;52.282;21.110;2023-07-13T04:39:55;41.65;;;13.18;;
19619;SDS011;9957;52.282;21.110;2023-07-13T04:42:21;29.30;;;11.40;;
19619;SDS011;9957;52.282;21.110;2023-07-13T04:44:51;23.90;;;11.37;;
19619;SDS011;9957;52.282;21.110;2023-07-13T04:47:17;22.67;;;11.57;;
19619;SDS011;9957;52.282;21.110;2023-07-13T04:49:44;28.60;;;10.98;;
19619;SDS011;9957;52.282;21.110;2023-07-13T04:52:11;23.10;;;11.88;;
19619;SDS011;9957;52.282;21.110;2023-07-13T04:54:37;22.80;;;10.90;;
19619;SDS011;9957;52.282;21.110;2023-07-13T04:57:04;23.23;;;10.80;;
19619;SDS011;9957;52.282;21.110;2023-07-13T04:59:33;31.27;;;11.70;;
19619;SDS011;9957;52.282;21.110;2023-07-13T05:01:59;24.30;;;11.43;;
19619;SDS011;9957;52.282;21.110;2023-07-13T05:04:26;24.23;;;12.10;;
19619;SDS011;9957;52.282;21.110;2023-07-13T05:06:52;24.33;;;11.77;;
19619;SDS011;9957;52.282;21.110;2023-07-13T05:09:18;28.38;;;12.10;;
19619;SDS011;9957;52.282;21.110;2023-07-13T05:11:44;27.65;;;11.38;;
19619;SDS011;9957;52.282;21.110;2023-07-13T05:14:11;25.07;;;11.83;;
19619;SDS011;9957;52.282;21.110;2023-07-13T05:16:37;32.05;;;12.35;;
19619;SDS011;9957;52.282;21.110;2023-07-13T05:19:03;21.92;;;11.50;;
19619;SDS011;9957;52.282;21.110;2023-07-13T05:21:30;24.40;;;11.43;;
19619;SDS011;9957;52.282;21.110;2023-07-13T05:23:56;23.25;;;11.20;;
19619;SDS011;9957;52.282;21.110;2023-07-13T05:26:22;24.52;;;11.43;;
19619;SDS011;9957;52.282;21.110;2023-07-13T05:28:48;22.17;;;11.45;;
19619;SDS011;9957;52.282;21.110;2023-07-13T05:31:14;26.23;;;11.52;;
19619;SDS011;9957;52.282;21.110;2023-07-13T05:33:41;22.70;;;11.18;;
19619;SDS011;9957;52.282;21.110;2023-07-13T05:36:07;24.17;;;11.57;;
19619;SDS011;9957;52.282;21.110;2023-07-13T05:38:33;24.02;;;12.48;;
19619;SDS011;9957;52.282;21.110;2023-07-13T05:41:00;24.67;;;11.55;;
19619;SDS011;9957;52.282;21.110;2023-07-13T05:43:26;24.42;;;11.13;;
19619;SDS011;9957;52.282;21.110;2023-07-13T05:45:53;49.75;;;12.10;;
19619;SDS011;9957;52.282;21.110;2023-07-13T05:48:19;26.17;;;11.82;;
19619;SDS011;9957;52.282;21.110;2023-07-13T05:50:46;23.77;;;11.35;;
19619;SDS011;9957;52.282;21.110;2023-07-13T05:53:12;21.20;;;11.30;;
19619;SDS011;9957;52.282;21.110;2023-07-13T05:55:42;25.58;;;11.27;;
19619;SDS011;9957;52.282;21.110;2023-07-13T05:58:08;22.50;;;10.87;;
19619;SDS011;9957;52.282;21.110;2023-07-13T06:00:35;24.15;;;12.00;;
19619;SDS011;9957;52.282;21.110;2023-07-13T06:03:01;19.52;;;10.52;;
19619;SDS011;9957;52.282;21.110;2023-07-13T06:05:27;25.35;;;11.90;;
19619;SDS011;9957;52.282;21.110;2023-07-13T06:07:54;23.98;;;10.95;;
19619;SDS011;9957;52.282;21.110;2023-07-13T06:10:20;24.08;;;10.73;;
19619;SDS011;9957;52.282;21.110;2023-07-13T06:12:47;22.08;;;10.52;;
19619;SDS011;9957;52.282;21.110;2023-07-13T06:15:13;26.75;;;10.35;;
19619;SDS011;9957;52.282;21.110;2023-07-13T06:17:42;20.20;;;9.50;;
19619;SDS011;9957;52.282;21.110;2023-07-13T06:20:09;32.27;;;9.73;;
19619;SDS011;9957;52.282;21.110;2023-07-13T06:22:41;17.50;;;8.85;;
19619;SDS011;9957;52.282;21.110;2023-07-13T06:25:07;18.48;;;8.90;;
19619;SDS011;9957;52.282;21.110;2023-07-13T06:27:33;19.40;;;8.95;;
19619;SDS011;9957;52.282;21.110;2023-07-13T06:30:00;15.25;;;8.38;;
19619;SDS011;9957;52.282;21.110;2023-07-13T06:32:26;14.87;;;8.70;;
19619;SDS011;9957;52.282;21.110;2023-07-13T06:34:52;15.73;;;8.10;;
19619;SDS011;9957;52.282;21.110;2023-07-13T06:37:18;14.80;;;7.50;;
19619;SDS011;9957;52.282;21.110;2023-07-13T06:39:44;22.87;;;7.60;;
19619;SDS011;9957;52.282;21.110;2023-07-13T06:42:10;15.32;;;7.10;;
19619;SDS011;9957;52.282;21.110;2023-07-13T06:44:36;17.55;;;7.60;;
19619;SDS011;9957;52.282;21.110;2023-07-13T06:47:02;14.20;;;7.25;;
19619;SDS011;9957;52.282;21.110;2023-07-13T06:49:28;18.88;;;6.38;;
19619;SDS011;9957;52.282;21.110;2023-07-13T06:51:54;14.57;;;6.32;;
19619;SDS011;9957;52.282;21.110;2023-07-13T06:54:21;11.98;;;5.50;;
19619;SDS011;9957;52.282;21.110;2023-07-13T06:56:47;8.98;;;5.13;;
19619;SDS011;9957;52.282;21.110;2023-07-13T06:59:13;7.60;;;4.90;;
19619;SDS011;9957;52.282;21.110;2023-07-13T07:01:39;9.13;;;4.70;;
19619;SDS011;9957;52.282;21.110;2023-07-13T07:04:05;10.43;;;3.78;;
19619;SDS011;9957;52.282;21.110;2023-07-13T07:06:31;11.07;;;4.30;;
19619;SDS011;9957;52.282;21.110;2023-07-13T07:08:57;11.47;;;4.53;;
19619;SDS011;9957;52.282;21.110;2023-07-13T07:11:24;8.52;;;4.05;;
19619;SDS011;9957;52.282;21.110;2023-07-13T07:13:51;10.13;;;4.30;;
19619;SDS011;9957;52.282;21.110;2023-07-13T07:16:17;6.13;;;4.23;;
19619;SDS011;9957;52.282;21.110;2023-07-13T07:18:43;10.45;;;4.35;;
19619;SDS011;9957;52.282;21.110;2023-07-13T07:21:10;8.40;;;4.28;;
19619;SDS011;9957;52.282;21.110;2023-07-13T07:23:36;9.00;;;3.53;;
19619;SDS011;9957;52.282;21.110;2023-07-13T07:26:02;3.67;;;2.78;;
19619;SDS011;9957;52.282;21.110;2023-07-13T07:28:28;5.45;;;3.90;;
19619;SDS011;9957;52.282;21.110;2023-07-13T07:30:55;6.68;;;3.42;;
19619;SDS011;9957;52.282;21.110;2023-07-13T07:33:22;4.68;;;3.53;;
19619;SDS011;9957;52.282;21.110;2023-07-13T07:35:48;5.97;;;3.80;;
19619;SDS011;9957;52.282;21.110;2023-07-13T07:38:14;7.63;;;4.22;;
19619;SDS011;9957;52.282;21.110;2023-07-13T07:40:40;7.72;;;4.60;;
19619;SDS011;9957;52.282;21.110;2023-07-13T07:43:07;14.45;;;4.50;;
19619;SDS011;9957;52.282;21.110;2023-07-13T07:45:34;7.05;;;4.50;;
19619;SDS011;9957;52.282;21.110;2023-07-13T07:48:00;25.05;;;4.70;;
19619;SDS011;9957;52.282;21.110;2023-07-13T07:50:26;7.38;;;4.00;;
19619;SDS011;9957;52.282;21.110;2023-07-13T07:52:53;5.13;;;3.90;;
19619;SDS011;9957;52.282;21.110;2023-07-13T07:55:21;6.75;;;3.92;;
19619;SDS011;9957;52.282;21.110;2023-07-13T07:57:47;4.45;;;3.15;;
19619;SDS011;9957;52.282;21.110;2023-07-13T08:00:14;12.40;;;3.78;;
19619;SDS011;9957;52.282;21.110;2023-07-13T08:02:40;6.10;;;3.65;;
19619;SDS011;9957;52.282;21.110;2023-07-13T08:09:58;9.48;;;3.60;;
19619;SDS011;9957;52.282;21.110;2023-07-13T08:12:24;8.82;;;3.42;;
19619;SDS011;9957;52.282;21.110;2023-07-13T08:17:22;8.90;;;3.42;;
19619;SDS011;9957;52.282;21.110;2023-07-13T08:19:48;5.38;;;3.60;;
19619;SDS011;9957;52.282;21.110;2023-07-13T08:22:15;7.10;;;3.60;;
19619;SDS011;9957;52.282;21.110;2023-07-13T08:24:41;7.78;;;3.72;;
19619;SDS011;9957;52.282;21.110;2023-07-13T08:32:02;9.13;;;4.05;;
19619;SDS011;9957;52.282;21.110;2023-07-13T08:34:28;12.43;;;3.95;;
19619;SDS011;9957;52.282;21.110;2023-07-13T08:36:54;7.80;;;4.07;;
19619;SDS011;9957;52.282;21.110;2023-07-13T08:39:20;9.32;;;4.10;;
19619;SDS011;9957;52.282;21.110;2023-07-13T08:41:51;11.02;;;4.07;;
19619;SDS011;9957;52.282;21.110;2023-07-13T08:44:25;7.82;;;4.20;;
19619;SDS011;9957;52.282;21.110;2023-07-13T08:46:53;8.60;;;4.18;;
19619;SDS011;9957;52.282;21.110;2023-07-13T08:49:21;11.50;;;4.32;;
19619;SDS011;9957;52.282;21.110;2023-07-13T08:56:46;5.85;;;3.90;;
19619;SDS011;9957;52.282;21.110;2023-07-13T08:59:14;6.72;;;4.00;;
19619;SDS011;9957;52.282;21.110;2023-07-13T09:04:18;11.25;;;4.25;;
19619;SDS011;9957;52.282;21.110;2023-07-13T09:36:25;8.80;;;2.97;;
19619;SDS011;9957;52.282;21.110;2023-07-13T09:41:37;4.68;;;2.40;;
19619;SDS011;9957;52.282;21.110;2023-07-13T10:03:33;8.20;;;3.05;;
19619;SDS011;9957;52.282;21.110;2023-07-13T10:06:13;12.70;;;2.60;;
19619;SDS011;9957;52.282;21.110;2023-07-13T10:08:40;2.47;;;2.10;;
